map of HHE home
HHE - Airport
Location
City:  Hachinohe, Aomori, Japan
Name:Hachinohe AB
ICAO:RJSH
IATA:HHE

Details
Type:Airport (Aerodrome, Airfield)
Use:Military
Latitude:40°33'23"N (40.556447)
Longitude:141°27'59"E (141.466325)
Datum:WGS 1984
Elevation:152 ft (46 m)
Variation:8.85°W (WMM2015v2 magnetic declination)
-0.06° annual change
Runways:3
Longest:7380 × 148 ft (2249 × 45 m), paved

Time
Time Zone:UTC+9
Local Time:

Weather
METAR:RJSH 041346Z 28015G32KT 240V320 9999 FEW012 SCT030 M03/M10 Q1015 RMK 1ST012 3CU030 A2999

Related Locations
Nearby:
Farthest:SJEN: 11491 mi / 18494 km
Santa Vitória do Palmar [Pista Plá e Silva], RS, BR

Find:

   beyond  
but within

Other Information
Maps:
NOTAMs:
Links:
Sources:

  
  • flag of Japan
  • flag of Aomori
  

Sectional Chart

Flight Planning
at skyvector.com

Satellite Image

Google Maps Satellite view

 

Copyright © 2004-2019 Karl L. Swartz. All rights reserved.
The Great Circle Mapper name and logo are trademarks of the Great Circle Mapper.
All other trademarks mentioned herein belong to their respective owners.
Please see credits for attibutions and further copyright information.

  Follow gcmap on Facebook Follow gcmap on Twitter GCmap on LinkedIn

hCard Microformat

Geo Microformat